createdAt,value
2019-02-05T00:00:00.062Z,1016.70
2019-02-05T00:01:00.088Z,1016.79
2019-02-05T00:02:00.105Z,1016.77
2019-02-05T00:03:00.125Z,1016.75
2019-02-05T00:04:00.147Z,1016.78
2019-02-05T00:05:00.188Z,1016.78
2019-02-05T00:06:00.191Z,1016.89
2019-02-05T00:07:00.213Z,1016.83
2019-02-05T00:08:00.234Z,1016.86
2019-02-05T00:09:00.254Z,1016.82
2019-02-05T00:10:00.278Z,1016.81
2019-02-05T00:11:00.300Z,1016.84
2019-02-05T00:12:00.318Z,1016.85
2019-02-05T00:13:00.340Z,1016.83
2019-02-05T00:14:00.371Z,1016.83
2019-02-05T00:15:00.410Z,1016.81
2019-02-05T00:16:00.414Z,1016.83
2019-02-05T00:17:00.427Z,1016.84
2019-02-05T00:18:00.449Z,1016.81
2019-02-05T00:19:00.474Z,1016.89
2019-02-05T00:20:00.494Z,1016.92
2019-02-05T00:21:00.518Z,1016.88
2019-02-05T00:22:00.536Z,1016.90
2019-02-05T00:23:00.567Z,1016.95
2019-02-05T00:24:00.580Z,1016.92
2019-02-05T00:25:00.604Z,1016.95
2019-02-05T00:26:06.408Z,1016.95
2019-02-05T00:27:00.645Z,1017.05
2019-02-05T00:28:00.668Z,1017.06
2019-02-05T00:29:00.690Z,1017.07
2019-02-05T00:30:00.716Z,1017.14
2019-02-05T00:31:00.731Z,1017.14
2019-02-05T00:32:00.753Z,1017.07
2019-02-05T00:33:00.780Z,1017.11
2019-02-05T00:34:00.805Z,1017.15
2019-02-05T00:35:00.821Z,1017.13
2019-02-05T00:36:00.841Z,1017.16
2019-02-05T00:37:00.863Z,1017.14
2019-02-05T00:38:00.883Z,1017.15
2019-02-05T00:39:00.908Z,1017.14
2019-02-05T00:40:00.925Z,1017.20
2019-02-05T00:41:00.947Z,1017.14
2019-02-05T00:42:00.976Z,1017.14
2019-02-05T00:43:00.994Z,1017.14
2019-02-05T00:44:01.072Z,1017.18
2019-02-05T00:45:01.036Z,1017.23
2019-02-05T00:46:01.057Z,1017.19
2019-02-05T00:47:01.082Z,1017.21
2019-02-05T00:48:01.108Z,1017.17
2019-02-05T00:49:01.123Z,1017.18
2019-02-05T00:50:01.252Z,1017.19
2019-02-05T00:51:01.167Z,1017.18
2019-02-05T00:52:01.186Z,1017.20
2019-02-05T00:53:01.207Z,1017.15
2019-02-05T00:54:01.229Z,1017.14
2019-02-05T00:55:01.254Z,1017.25
2019-02-05T00:56:01.274Z,1017.22
2019-02-05T00:57:01.302Z,1017.25
2019-02-05T00:58:01.315Z,1017.20
2019-02-05T00:59:01.337Z,1017.16
2019-02-05T01:00:01.362Z,1017.14
2019-02-05T01:01:01.381Z,1017.23
2019-02-05T01:02:01.402Z,1017.24
2019-02-05T01:03:01.424Z,1017.22
2019-02-05T01:04:01.445Z,1017.28
2019-02-05T01:05:01.469Z,1017.29
2019-02-05T01:06:01.491Z,1017.34
2019-02-05T01:07:01.513Z,1017.31
2019-02-05T01:08:01.536Z,1017.37
2019-02-05T01:09:01.562Z,1017.37
2019-02-05T01:10:01.579Z,1017.39
2019-02-05T01:11:01.600Z,1017.47
2019-02-05T01:12:01.618Z,1017.43
2019-02-05T01:13:01.650Z,1017.41
2019-02-05T01:14:01.663Z,1017.37
2019-02-05T01:15:01.686Z,1017.44
2019-02-05T01:16:01.707Z,1017.44
2019-02-05T01:17:01.725Z,1017.40
2019-02-05T01:18:01.748Z,1017.30
2019-02-05T01:19:01.771Z,1017.36
2019-02-05T01:20:01.792Z,1017.34
2019-02-05T01:21:01.814Z,1017.32
2019-02-05T01:22:01.838Z,1017.32
2019-02-05T01:23:01.858Z,1017.27
2019-02-05T01:24:01.880Z,1017.25
2019-02-05T01:25:01.897Z,1017.30
2019-02-05T01:26:01.923Z,1017.32
2019-02-05T01:27:01.947Z,1017.30
2019-02-05T01:28:01.972Z,1017.27
2019-02-05T01:29:01.989Z,1017.27
2019-02-05T01:30:02.038Z,1017.35
2019-02-05T01:31:02.034Z,1017.28
2019-02-05T01:32:02.054Z,1017.25
2019-02-05T01:33:02.077Z,1017.27
2019-02-05T01:34:02.094Z,1017.25
2019-02-05T01:35:02.117Z,1017.22
2019-02-05T01:36:02.142Z,1017.22
2019-02-05T01:37:02.157Z,1017.25
2019-02-05T01:38:02.182Z,1017.28
2019-02-05T01:39:02.201Z,1017.22
2019-02-05T01:40:02.233Z,1017.24
2019-02-05T01:41:02.251Z,1017.21
2019-02-05T01:42:02.267Z,1017.24
2019-02-05T01:43:02.287Z,1017.21
2019-02-05T01:44:02.310Z,1017.23
2019-02-05T01:45:02.330Z,1017.30
2019-02-05T01:46:02.351Z,1017.29
2019-02-05T01:47:02.373Z,1017.31
2019-02-05T01:48:02.396Z,1017.31
2019-02-05T01:49:02.414Z,1017.27
2019-02-05T01:50:02.437Z,1017.25
2019-02-05T01:51:02.462Z,1017.35
2019-02-05T01:52:02.483Z,1017.39
2019-02-05T01:53:02.503Z,1017.34
2019-02-05T01:54:02.525Z,1017.35
2019-02-05T01:55:02.554Z,1017.35
2019-02-05T01:56:02.565Z,1017.38
2019-02-05T01:57:02.588Z,1017.36
2019-02-05T01:58:02.610Z,1017.37
2019-02-05T01:59:02.631Z,1017.40
2019-02-05T02:00:02.655Z,1017.43
2019-02-05T02:01:02.677Z,1017.40
2019-02-05T02:02:02.696Z,1017.40
2019-02-05T02:03:02.718Z,1017.44
2019-02-05T02:04:02.740Z,1017.55
2019-02-05T02:05:02.769Z,1017.48
2019-02-05T02:06:02.785Z,1017.48
2019-02-05T02:07:02.809Z,1017.45
2019-02-05T02:08:02.966Z,1017.35
2019-02-05T02:09:02.847Z,1017.44
2019-02-05T02:10:02.871Z,1017.40
2019-02-05T02:11:02.891Z,1017.41
2019-02-05T02:12:02.915Z,1017.36
2019-02-05T02:13:02.935Z,1017.35
2019-02-05T02:14:02.956Z,1017.35
2019-02-05T02:15:02.977Z,1017.32
2019-02-05T02:16:03.006Z,1017.39
2019-02-05T02:17:03.021Z,1017.36
2019-02-05T02:18:03.041Z,1017.34
2019-02-05T02:19:03.062Z,1017.30
2019-02-05T02:20:03.083Z,1017.27
2019-02-05T02:21:03.108Z,1017.30
2019-02-05T02:22:03.129Z,1017.28
2019-02-05T02:23:03.151Z,1017.35
2019-02-05T02:24:03.171Z,1017.31
2019-02-05T02:25:03.192Z,1017.35
2019-02-05T02:26:03.216Z,1017.37
2019-02-05T02:27:03.238Z,1017.33
2019-02-05T02:28:03.259Z,1017.34
2019-02-05T02:29:03.278Z,1017.35
2019-02-05T02:30:03.308Z,1017.34
2019-02-05T02:31:03.329Z,1017.33
2019-02-05T02:32:03.352Z,1017.36
2019-02-05T02:33:03.364Z,1017.29
2019-02-05T02:34:03.386Z,1017.29
2019-02-05T02:35:03.410Z,1017.26
2019-02-05T02:36:03.439Z,1017.34
2019-02-05T02:37:03.449Z,1017.31
2019-02-05T02:38:03.483Z,1017.38
2019-02-05T02:39:03.497Z,1017.37
2019-02-05T02:40:03.516Z,1017.32
2019-02-05T02:41:03.538Z,1017.42
2019-02-05T02:42:03.558Z,1017.38
2019-02-05T02:43:03.581Z,1017.40
2019-02-05T02:44:03.604Z,1017.32
2019-02-05T02:45:03.632Z,1017.39
2019-02-05T02:46:03.662Z,1017.38
2019-02-05T02:47:03.675Z,1017.43
2019-02-05T02:48:03.697Z,1017.39
2019-02-05T02:49:03.736Z,1017.43
2019-02-05T02:50:03.735Z,1017.40
2019-02-05T02:51:03.754Z,1017.41
2019-02-05T02:52:03.775Z,1017.44
2019-02-05T02:53:03.797Z,1017.47
2019-02-05T02:54:03.822Z,1017.43
2019-02-05T02:55:03.846Z,1017.51
2019-02-05T02:56:03.867Z,1017.41
2019-02-05T02:57:05.018Z,1017.43
2019-02-05T02:58:03.913Z,1017.51
2019-02-05T02:59:03.928Z,1017.44
2019-02-05T03:00:03.955Z,1017.42
2019-02-05T03:01:03.975Z,1017.42
2019-02-05T03:02:03.994Z,1017.46
2019-02-05T03:03:04.015Z,1017.45
2019-02-05T03:04:04.034Z,1017.44
2019-02-05T03:05:04.057Z,1017.48
2019-02-05T03:06:04.079Z,1017.41
2019-02-05T03:07:04.103Z,1017.49
2019-02-05T03:08:04.122Z,1017.46
2019-02-05T03:09:04.141Z,1017.51
2019-02-05T03:10:04.170Z,1017.44
2019-02-05T03:11:04.189Z,1017.43
2019-02-05T03:12:04.211Z,1017.46
2019-02-05T03:13:04.228Z,1017.42
2019-02-05T03:14:04.258Z,1017.44
2019-02-05T03:15:04.273Z,1017.49
2019-02-05T03:16:04.292Z,1017.51
2019-02-05T03:17:04.324Z,1017.46
2019-02-05T03:18:04.343Z,1017.48
2019-02-05T03:19:04.360Z,1017.50
2019-02-05T03:20:04.378Z,1017.52
2019-02-05T03:21:04.414Z,1017.53
2019-02-05T03:22:04.426Z,1017.51
2019-02-05T03:23:04.446Z,1017.52
2019-02-05T03:24:04.467Z,1017.51
2019-02-05T03:25:04.494Z,1017.46
2019-02-05T03:26:04.511Z,1017.46
2019-02-05T03:27:16.955Z,1017.48
2019-02-05T03:28:04.551Z,1017.45
2019-02-05T03:29:04.577Z,1017.54
2019-02-05T03:30:04.597Z,1017.50
2019-02-05T03:31:04.625Z,1017.48
2019-02-05T03:32:04.639Z,1017.49
2019-02-05T03:33:04.661Z,1017.49
2019-02-05T03:34:04.683Z,1017.51
2019-02-05T03:35:04.703Z,1017.45
2019-02-05T03:36:04.724Z,1017.46
2019-02-05T03:37:04.746Z,1017.44
2019-02-05T03:38:04.770Z,1017.51
2019-02-05T03:39:04.798Z,1017.51
2019-02-05T03:40:04.813Z,1017.56
2019-02-05T03:41:04.839Z,1017.60
2019-02-05T03:42:04.860Z,1017.62
2019-02-05T03:43:04.876Z,1017.57
2019-02-05T03:44:04.897Z,1017.63
2019-02-05T03:45:04.919Z,1017.60
2019-02-05T03:46:04.944Z,1017.57
2019-02-05T03:47:04.962Z,1017.65
2019-02-05T03:48:04.986Z,1017.64
2019-02-05T03:49:05.019Z,1017.64
2019-02-05T03:50:05.030Z,1017.67
2019-02-05T03:51:05.067Z,1017.68
2019-02-05T03:52:05.078Z,1017.66
2019-02-05T03:53:05.094Z,1017.70
2019-02-05T03:54:05.125Z,1017.66
2019-02-05T03:55:05.138Z,1017.66
2019-02-05T03:56:05.158Z,1017.67
2019-02-05T03:57:05.305Z,1017.65
2019-02-05T03:58:05.202Z,1017.72
2019-02-05T03:59:05.223Z,1017.69
2019-02-05T04:00:05.246Z,1017.71
2019-02-05T04:01:05.266Z,1017.72
2019-02-05T04:02:05.289Z,1017.66
2019-02-05T04:03:05.312Z,1017.65
2019-02-05T04:04:05.336Z,1017.61
2019-02-05T04:05:05.355Z,1017.62
2019-02-05T04:06:05.384Z,1017.63
2019-02-05T04:07:05.400Z,1017.62
2019-02-05T04:08:05.419Z,1017.67
2019-02-05T04:09:05.441Z,1017.69
2019-02-05T04:10:05.466Z,1017.62
2019-02-05T04:11:05.485Z,1017.64
2019-02-05T04:12:05.506Z,1017.66
2019-02-05T04:13:05.530Z,1017.67
2019-02-05T04:14:05.549Z,1017.62
2019-02-05T04:15:05.570Z,1017.56
2019-02-05T04:16:05.595Z,1017.61
2019-02-05T04:17:05.612Z,1017.59
2019-02-05T04:18:05.634Z,1017.56
2019-02-05T04:19:05.676Z,1017.59
2019-02-05T04:20:05.679Z,1017.55
2019-02-05T04:21:05.700Z,1017.59
2019-02-05T04:22:05.722Z,1017.55
2019-02-05T04:23:05.746Z,1017.57
2019-02-05T04:24:05.766Z,1017.64
2019-02-05T04:25:05.796Z,1017.62
2019-02-05T04:26:05.816Z,1017.58
2019-02-05T04:27:05.832Z,1017.57
2019-02-05T04:28:05.857Z,1017.59
2019-02-05T04:29:05.874Z,1017.56
2019-02-05T04:30:05.895Z,1017.54
2019-02-05T04:31:05.925Z,1017.55
2019-02-05T04:32:05.941Z,1017.52
2019-02-05T04:33:05.965Z,1017.50
2019-02-05T04:34:05.982Z,1017.51
2019-02-05T04:35:06.009Z,1017.56
2019-02-05T04:36:06.027Z,1017.60
2019-02-05T04:37:06.047Z,1017.59
2019-02-05T04:38:06.075Z,1017.66
2019-02-05T04:39:06.095Z,1017.65
2019-02-05T04:40:06.112Z,1017.70
2019-02-05T04:41:06.135Z,1017.66
2019-02-05T04:42:06.162Z,1017.73
2019-02-05T04:43:06.177Z,1017.74
2019-02-05T04:44:06.200Z,1017.71
2019-02-05T04:45:06.222Z,1017.75
2019-02-05T04:46:06.254Z,1017.72
2019-02-05T04:47:06.272Z,1017.75
2019-02-05T04:48:06.285Z,1017.77
2019-02-05T04:49:06.308Z,1017.73
2019-02-05T04:50:06.326Z,1017.70
2019-02-05T04:51:06.353Z,1017.69
2019-02-05T04:52:06.379Z,1017.67
2019-02-05T04:53:06.395Z,1017.70
2019-02-05T04:54:06.419Z,1017.70
2019-02-05T04:55:06.439Z,1017.73
2019-02-05T04:56:06.465Z,1017.74
2019-02-05T04:57:06.481Z,1017.76
2019-02-05T04:58:06.517Z,1017.75
2019-02-05T04:59:06.523Z,1017.81
2019-02-05T05:00:06.544Z,1017.81
2019-02-05T05:01:06.567Z,1017.81
2019-02-05T05:02:06.588Z,1017.84
2019-02-05T05:03:06.610Z,1017.84
2019-02-05T05:04:06.634Z,1017.80
2019-02-05T05:05:06.653Z,1017.85
2019-02-05T05:06:06.830Z,1017.85
2019-02-05T05:07:06.694Z,1017.82
2019-02-05T05:08:06.714Z,1017.85
2019-02-05T05:09:06.739Z,1017.87
2019-02-05T05:10:06.761Z,1017.87
2019-02-05T05:11:06.785Z,1017.89
2019-02-05T05:12:06.801Z,1017.91
2019-02-05T05:13:06.825Z,1017.87
2019-02-05T05:14:06.845Z,1017.87
2019-02-05T05:15:06.876Z,1017.86
2019-02-05T05:16:06.892Z,1017.85
2019-02-05T05:17:06.914Z,1017.88
2019-02-05T05:18:06.937Z,1017.93
2019-02-05T05:19:06.955Z,1017.87
2019-02-05T05:20:06.975Z,1017.88
2019-02-05T05:21:06.995Z,1017.88
2019-02-05T05:22:07.019Z,1017.88
2019-02-05T05:23:07.041Z,1017.83
2019-02-05T05:24:07.059Z,1017.86
2019-02-05T05:25:07.085Z,1017.81
2019-02-05T05:26:07.108Z,1017.83
2019-02-05T05:27:07.130Z,1017.79
2019-02-05T05:28:10.015Z,1017.81
2019-02-05T05:29:07.171Z,1017.82
2019-02-05T05:30:07.203Z,1017.89
2019-02-05T05:31:07.215Z,1017.77
2019-02-05T05:32:07.235Z,1017.80
2019-02-05T05:33:07.258Z,1017.78
2019-02-05T05:34:07.283Z,1017.82
2019-02-05T05:35:07.306Z,1017.81
2019-02-05T05:36:07.319Z,1017.82
2019-02-05T05:37:07.346Z,1017.83
2019-02-05T05:38:07.373Z,1017.82
2019-02-05T05:39:07.385Z,1017.85
2019-02-05T05:40:07.407Z,1017.89
2019-02-05T05:41:07.435Z,1017.89
2019-02-05T05:42:07.450Z,1017.91
2019-02-05T05:43:07.503Z,1017.92
2019-02-05T05:44:09.583Z,1017.91
2019-02-05T05:45:07.517Z,1017.89
2019-02-05T05:46:07.538Z,1017.95
2019-02-05T05:47:07.565Z,1017.99
2019-02-05T05:48:07.580Z,1017.96
2019-02-05T05:49:07.599Z,1017.97
2019-02-05T05:50:07.621Z,1017.99
2019-02-05T05:51:07.656Z,1018.05
2019-02-05T05:52:07.664Z,1018.07
2019-02-05T05:53:07.688Z,1018.07
2019-02-05T05:54:07.712Z,1018.07
2019-02-05T05:55:07.731Z,1018.08
2019-02-05T05:56:07.901Z,1018.07
2019-02-05T05:57:07.775Z,1018.05
2019-02-05T05:58:07.797Z,1018.07
2019-02-05T05:59:07.814Z,1018.06
2019-02-05T06:00:07.839Z,1018.03
2019-02-05T06:01:07.866Z,1018.04
2019-02-05T06:02:07.880Z,1018.06
2019-02-05T06:03:07.906Z,1018.06
2019-02-05T06:04:07.929Z,1018.09
2019-02-05T06:05:07.957Z,1018.14
2019-02-05T06:06:07.966Z,1018.14
2019-02-05T06:07:08.014Z,1018.14
2019-02-05T06:08:08.018Z,1018.16
2019-02-05T06:09:08.033Z,1018.12
2019-02-05T06:10:08.057Z,1018.18
2019-02-05T06:11:08.077Z,1018.20
2019-02-05T06:12:08.098Z,1018.21
2019-02-05T06:13:08.118Z,1018.20
2019-02-05T06:14:08.144Z,1018.29
2019-02-05T06:15:08.162Z,1018.30
2019-02-05T06:16:08.184Z,1018.29
2019-02-05T06:17:08.205Z,1018.33
2019-02-05T06:18:08.228Z,1018.37
2019-02-05T06:19:08.249Z,1018.37
2019-02-05T06:20:08.272Z,1018.33
2019-02-05T06:21:08.293Z,1018.33
2019-02-05T06:22:08.315Z,1018.31
2019-02-05T06:23:08.337Z,1018.33
2019-02-05T06:24:08.358Z,1018.30
2019-02-05T06:25:08.381Z,1018.23
2019-02-05T06:26:08.407Z,1018.27
2019-02-05T06:27:08.431Z,1018.27
2019-02-05T06:28:08.455Z,1018.36
2019-02-05T06:29:08.467Z,1018.33
2019-02-05T06:30:08.487Z,1018.37
2019-02-05T06:31:08.512Z,1018.32
2019-02-05T06:32:08.534Z,1018.33
2019-02-05T06:33:08.554Z,1018.33
2019-02-05T06:34:08.576Z,1018.32
2019-02-05T06:35:08.606Z,1018.35
2019-02-05T06:36:08.618Z,1018.33
2019-02-05T06:37:08.640Z,1018.31
2019-02-05T06:38:08.664Z,1018.29
2019-02-05T06:39:08.687Z,1018.33
2019-02-05T06:40:08.706Z,1018.34
2019-02-05T06:41:08.728Z,1018.30
2019-02-05T06:42:08.748Z,1018.32
2019-02-05T06:43:08.773Z,1018.32
2019-02-05T06:44:08.791Z,1018.38
2019-02-05T06:45:08.814Z,1018.37
2019-02-05T06:46:08.836Z,1018.43
2019-02-05T06:47:08.857Z,1018.43
2019-02-05T06:48:08.878Z,1018.41
2019-02-05T06:49:08.902Z,1018.41
2019-02-05T06:50:08.922Z,1018.41
2019-02-05T06:51:08.959Z,1018.42
2019-02-05T06:52:08.969Z,1018.52
2019-02-05T06:53:08.987Z,1018.48
2019-02-05T06:54:09.010Z,1018.46
2019-02-05T06:55:09.030Z,1018.50
2019-02-05T06:56:09.051Z,1018.51
2019-02-05T06:57:09.075Z,1018.48
2019-02-05T06:58:09.095Z,1018.45
2019-02-05T06:59:09.117Z,1018.50
2019-02-05T07:00:09.144Z,1018.47
2019-02-05T07:01:09.166Z,1018.50
2019-02-05T07:02:09.185Z,1018.50
2019-02-05T07:03:09.208Z,1018.51
2019-02-05T07:04:09.225Z,1018.55
2019-02-05T07:05:09.267Z,1018.50
2019-02-05T07:06:09.282Z,1018.57
2019-02-05T07:07:09.304Z,1018.58
2019-02-05T07:08:09.325Z,1018.57
2019-02-05T07:09:09.347Z,1018.58
2019-02-05T07:10:09.373Z,1018.61
2019-02-05T07:11:09.388Z,1018.60
2019-02-05T07:12:09.412Z,1018.60
2019-02-05T07:13:09.431Z,1018.68
2019-02-05T07:14:09.454Z,1018.64
2019-02-05T07:15:09.476Z,1018.73
2019-02-05T07:16:09.496Z,1018.71
2019-02-05T07:17:09.523Z,1018.67
2019-02-05T07:18:09.546Z,1018.65
2019-02-05T07:19:09.565Z,1018.69
2019-02-05T07:20:09.587Z,1018.74
2019-02-05T07:21:09.608Z,1018.69
2019-02-05T07:22:09.630Z,1018.72
2019-02-05T07:23:09.651Z,1018.78
2019-02-05T07:24:09.674Z,1018.86
2019-02-05T07:25:09.692Z,1018.78
2019-02-05T07:26:09.715Z,1018.82
2019-02-05T07:27:09.736Z,1018.78
2019-02-05T07:28:09.764Z,1018.83
2019-02-05T07:29:09.780Z,1018.83
2019-02-05T07:30:09.802Z,1018.85
2019-02-05T07:31:09.829Z,1018.83
2019-02-05T07:32:09.850Z,1018.75
2019-02-05T07:33:09.869Z,1018.77
2019-02-05T07:34:09.890Z,1018.80
2019-02-05T07:35:09.911Z,1018.81
2019-02-05T07:36:09.939Z,1018.83
2019-02-05T07:37:10.000Z,1018.84
2019-02-05T07:38:09.978Z,1018.83
2019-02-05T07:39:10.000Z,1018.87
2019-02-05T07:40:10.026Z,1018.86
2019-02-05T07:41:10.044Z,1018.84
2019-02-05T07:42:10.066Z,1018.97
2019-02-05T07:43:10.087Z,1018.94
2019-02-05T07:44:10.111Z,1018.95
2019-02-05T07:45:10.133Z,1018.97
2019-02-05T07:46:10.159Z,1018.95
2019-02-05T07:47:10.183Z,1018.99
2019-02-05T07:48:10.195Z,1018.96
2019-02-05T07:49:10.221Z,1018.94
2019-02-05T07:50:10.241Z,1018.97
2019-02-05T07:51:10.271Z,1018.96
2019-02-05T07:52:10.285Z,1018.99
2019-02-05T07:53:10.306Z,1019.02
2019-02-05T07:54:10.329Z,1019.01
2019-02-05T07:55:10.352Z,1019.06
2019-02-05T07:56:12.861Z,1019.05
2019-02-05T07:57:10.396Z,1019.06
2019-02-05T07:58:10.519Z,1019.10
2019-02-05T07:59:10.704Z,1019.09
2019-02-05T08:00:10.460Z,1019.12
2019-02-05T08:01:10.483Z,1019.13
2019-02-05T08:02:10.506Z,1019.22
2019-02-05T08:03:10.526Z,1019.24
2019-02-05T08:04:10.548Z,1019.21
2019-02-05T08:05:10.575Z,1019.23
2019-02-05T08:06:10.601Z,1019.25
2019-02-05T08:07:10.614Z,1019.27
2019-02-05T08:08:10.636Z,1019.24
2019-02-05T08:09:10.659Z,1019.30
2019-02-05T08:10:10.679Z,1019.33
2019-02-05T08:11:10.711Z,1019.34
2019-02-05T08:12:10.723Z,1019.32
2019-02-05T08:13:10.747Z,1019.38
2019-02-05T08:14:10.774Z,1019.32
2019-02-05T08:15:10.791Z,1019.43
2019-02-05T08:16:10.813Z,1019.39
2019-02-05T08:17:10.836Z,1019.47
2019-02-05T08:18:10.862Z,1019.45
2019-02-05T08:19:10.881Z,1019.45
2019-02-05T08:20:10.897Z,1019.47
2019-02-05T08:21:10.920Z,1019.52
2019-02-05T08:22:10.945Z,1019.59
2019-02-05T08:23:10.977Z,1019.54
2019-02-05T08:24:10.988Z,1019.53
2019-02-05T08:25:11.022Z,1019.55
2019-02-05T08:26:11.030Z,1019.53
2019-02-05T08:27:11.059Z,1019.55
2019-02-05T08:28:11.074Z,1019.53
2019-02-05T08:29:21.361Z,1019.51
2019-02-05T08:30:11.127Z,1019.52
2019-02-05T08:31:11.143Z,1019.51
2019-02-05T08:32:11.162Z,1019.49
2019-02-05T08:33:11.188Z,1019.49
2019-02-05T08:34:11.215Z,1019.46
2019-02-05T08:35:11.238Z,1019.44
2019-02-05T08:36:11.250Z,1019.45
2019-02-05T08:37:11.272Z,1019.45
2019-02-05T08:38:11.295Z,1019.51
2019-02-05T08:39:11.322Z,1019.48
2019-02-05T08:40:11.342Z,1019.48
2019-02-05T08:41:11.366Z,1019.48
2019-02-05T08:42:11.385Z,1019.49
2019-02-05T08:43:11.403Z,1019.55
2019-02-05T08:44:11.428Z,1019.56
2019-02-05T08:45:14.251Z,1019.59
2019-02-05T08:46:11.470Z,1019.55
2019-02-05T08:47:11.493Z,1019.60
2019-02-05T08:48:11.515Z,1019.56
2019-02-05T08:49:11.542Z,1019.59
2019-02-05T08:50:11.558Z,1019.60
2019-02-05T08:51:11.584Z,1019.62
2019-02-05T08:52:11.604Z,1019.63
2019-02-05T08:53:11.634Z,1019.71
2019-02-05T08:54:11.649Z,1019.69
2019-02-05T08:55:11.670Z,1019.63
2019-02-05T08:56:11.697Z,1019.70
2019-02-05T08:57:11.718Z,1019.70
2019-02-05T08:58:11.734Z,1019.72
2019-02-05T08:59:11.763Z,1019.72
2019-02-05T09:00:11.780Z,1019.73
2019-02-05T09:01:14.387Z,1019.70
2019-02-05T09:02:11.822Z,1019.72
2019-02-05T09:03:11.846Z,1019.69
2019-02-05T09:04:11.867Z,1019.72
2019-02-05T09:05:11.888Z,1019.82
2019-02-05T09:06:11.912Z,1019.82
2019-02-05T09:07:11.937Z,1019.82
2019-02-05T09:08:11.958Z,1019.74
2019-02-05T09:09:12.051Z,1019.69
2019-02-05T09:10:12.075Z,1019.75
2019-02-05T09:11:12.204Z,1019.73
2019-02-05T09:12:12.043Z,1019.72
2019-02-05T09:13:12.065Z,1019.74
2019-02-05T09:14:12.483Z,1019.77
2019-02-05T09:15:12.110Z,1019.81
2019-02-05T09:16:12.132Z,1019.80
2019-02-05T09:17:12.157Z,1019.79
2019-02-05T09:18:12.176Z,1019.83
2019-02-05T09:19:12.196Z,1019.83
2019-02-05T09:20:12.221Z,1019.85
2019-02-05T09:21:12.699Z,1019.87
2019-02-05T09:22:12.267Z,1019.90
2019-02-05T09:23:14.339Z,1019.94
2019-02-05T09:24:12.709Z,1019.95
2019-02-05T09:25:12.405Z,1019.97
2019-02-05T09:26:12.350Z,1020.07
2019-02-05T09:27:12.373Z,1020.08
2019-02-05T09:28:12.397Z,1020.04
2019-02-05T09:29:12.416Z,1020.05
2019-02-05T09:30:12.442Z,1020.07
2019-02-05T09:31:12.462Z,1020.03
2019-02-05T09:32:12.488Z,1020.09
2019-02-05T09:33:12.509Z,1020.13
2019-02-05T09:34:12.531Z,1020.13
2019-02-05T09:35:12.553Z,1020.12
2019-02-05T09:36:12.574Z,1020.16
2019-02-05T09:37:12.600Z,1020.14
2019-02-05T09:38:12.617Z,1020.15
2019-02-05T09:39:12.641Z,1020.11
2019-02-05T09:40:12.662Z,1020.18
2019-02-05T09:41:12.685Z,1020.20
2019-02-05T09:42:12.708Z,1020.22
2019-02-05T09:43:12.732Z,1020.18
2019-02-05T09:44:12.749Z,1020.24
2019-02-05T09:45:12.772Z,1020.24
2019-02-05T09:46:12.797Z,1020.20
2019-02-05T09:47:12.821Z,1020.25
2019-02-05T09:48:12.838Z,1020.23
2019-02-05T09:49:12.873Z,1020.26
2019-02-05T09:50:12.886Z,1020.24
2019-02-05T09:51:12.909Z,1020.28
2019-02-05T09:52:12.933Z,1020.32
2019-02-05T09:53:12.950Z,1020.35
2019-02-05T09:54:12.975Z,1020.24
2019-02-05T09:55:12.996Z,1020.34
2019-02-05T09:56:13.020Z,1020.40
2019-02-05T09:57:13.039Z,1020.34
2019-02-05T09:58:13.071Z,1020.42
2019-02-05T09:59:13.090Z,1020.40
2019-02-05T10:00:13.112Z,1020.40
2019-02-05T10:01:13.132Z,1020.47
2019-02-05T10:02:13.159Z,1020.44
2019-02-05T10:03:13.177Z,1020.41
2019-02-05T10:04:13.195Z,1020.43
2019-02-05T10:05:13.218Z,1020.50
2019-02-05T10:06:13.244Z,1020.48
2019-02-05T10:07:13.267Z,1020.50
2019-02-05T10:08:13.289Z,1020.45
2019-02-05T10:09:13.313Z,1020.51
2019-02-05T10:10:13.330Z,1020.46
2019-02-05T10:11:13.353Z,1020.51
2019-02-05T10:12:13.377Z,1020.56
2019-02-05T10:13:13.397Z,1020.61
2019-02-05T10:14:13.421Z,1020.49
2019-02-05T10:15:13.446Z,1020.55
2019-02-05T10:16:13.464Z,1020.65
2019-02-05T10:17:13.490Z,1020.60
2019-02-05T10:18:13.519Z,1020.64
2019-02-05T10:19:13.535Z,1020.61
2019-02-05T10:20:13.554Z,1020.66
2019-02-05T10:21:13.579Z,1020.66
2019-02-05T10:22:13.599Z,1020.64
2019-02-05T10:23:13.624Z,1020.72
2019-02-05T10:24:13.648Z,1020.62
2019-02-05T10:25:13.678Z,1020.66
2019-02-05T10:26:13.692Z,1020.64
2019-02-05T10:27:13.715Z,1020.64
2019-02-05T10:28:13.733Z,1020.64
2019-02-05T10:29:13.757Z,1020.69
2019-02-05T10:30:13.782Z,1020.65
2019-02-05T10:31:13.803Z,1020.72
2019-02-05T10:32:13.826Z,1020.73
2019-02-05T10:33:13.855Z,1020.72
2019-02-05T10:34:13.871Z,1020.70
2019-02-05T10:35:13.897Z,1020.74
2019-02-05T10:36:13.916Z,1020.67
2019-02-05T10:37:13.942Z,1020.74
2019-02-05T10:38:13.961Z,1020.70
2019-02-05T10:39:13.987Z,1020.70
2019-02-05T10:40:14.004Z,1020.71
2019-02-05T10:41:14.027Z,1020.67
2019-02-05T10:42:14.051Z,1020.72
2019-02-05T10:43:14.079Z,1020.66
2019-02-05T10:44:14.095Z,1020.67
2019-02-05T10:45:14.122Z,1020.70
2019-02-05T10:46:14.147Z,1020.70
2019-02-05T10:47:14.161Z,1020.65
2019-02-05T10:48:14.195Z,1020.66
2019-02-05T10:49:14.206Z,1020.66
2019-02-05T10:50:14.230Z,1020.65
2019-02-05T10:51:14.260Z,1020.70
2019-02-05T10:52:14.275Z,1020.67
2019-02-05T10:53:14.299Z,1020.65
2019-02-05T10:54:14.328Z,1020.64
2019-02-05T10:55:14.344Z,1020.66
2019-02-05T10:56:14.365Z,1020.62
2019-02-05T10:57:14.387Z,1020.59
2019-02-05T10:58:14.408Z,1020.57
2019-02-05T10:59:14.431Z,1020.61
2019-02-05T11:00:14.454Z,1020.59
2019-02-05T11:01:14.485Z,1020.58
2019-02-05T11:02:14.505Z,1020.59
2019-02-05T11:03:14.524Z,1020.59
2019-02-05T11:04:14.546Z,1020.62
2019-02-05T11:05:14.568Z,1020.67
2019-02-05T11:06:14.685Z,1020.61
2019-02-05T11:07:14.614Z,1020.62
2019-02-05T11:08:14.635Z,1020.61
2019-02-05T11:09:14.659Z,1020.62
2019-02-05T11:10:14.678Z,1020.62
2019-02-05T11:11:14.703Z,1020.62
2019-02-05T11:12:14.723Z,1020.62
2019-02-05T11:13:14.747Z,1020.66
2019-02-05T11:14:14.770Z,1020.61
2019-02-05T11:15:14.789Z,1020.57
2019-02-05T11:16:14.814Z,1020.59
2019-02-05T11:17:14.835Z,1020.61
2019-02-05T11:18:14.867Z,1020.59
2019-02-05T11:19:14.879Z,1020.59
2019-02-05T11:20:14.907Z,1020.60
2019-02-05T11:21:14.931Z,1020.55
2019-02-05T11:22:14.947Z,1020.56
2019-02-05T11:23:14.972Z,1020.53
2019-02-05T11:24:14.999Z,1020.53
2019-02-05T11:25:15.013Z,1020.50
2019-02-05T11:26:15.041Z,1020.56
2019-02-05T11:27:15.059Z,1020.53
2019-02-05T11:28:15.083Z,1020.47
2019-02-05T11:29:15.102Z,1020.43
2019-02-05T11:30:20.372Z,1020.43
2019-02-05T11:31:15.151Z,1020.49
2019-02-05T11:32:15.169Z,1020.41
2019-02-05T11:33:15.193Z,1020.42
2019-02-05T11:34:15.219Z,1020.37
2019-02-05T11:35:15.238Z,1020.42
2019-02-05T11:36:15.260Z,1020.40
2019-02-05T11:37:15.281Z,1020.33
2019-02-05T11:38:15.306Z,1020.38
2019-02-05T11:39:15.330Z,1020.44
2019-02-05T11:40:15.355Z,1020.46
2019-02-05T11:41:15.381Z,1020.46
2019-02-05T11:42:15.397Z,1020.50
2019-02-05T11:43:15.418Z,1020.50
2019-02-05T11:44:15.442Z,1020.39
2019-02-05T11:45:15.461Z,1020.42
2019-02-05T11:46:15.485Z,1020.41
2019-02-05T11:47:15.508Z,1020.42
2019-02-05T11:48:15.530Z,1020.38
2019-02-05T11:49:15.558Z,1020.35
2019-02-05T11:50:15.580Z,1020.37
2019-02-05T11:51:15.603Z,1020.41
2019-02-05T11:52:15.621Z,1020.48
2019-02-05T11:53:15.644Z,1020.41
2019-02-05T11:54:15.667Z,1020.43
2019-02-05T11:55:15.687Z,1020.42
2019-02-05T11:56:15.708Z,1020.39
2019-02-05T11:57:15.734Z,1020.38
2019-02-05T11:58:15.754Z,1020.38
2019-02-05T11:59:15.779Z,1020.43
2019-02-05T12:00:15.800Z,1020.38
2019-02-05T12:01:15.821Z,1020.44
2019-02-05T12:02:15.851Z,1020.42
2019-02-05T12:03:15.868Z,1020.40
2019-02-05T12:04:15.892Z,1020.40
2019-02-05T12:05:15.912Z,1020.34